createdAt,value
2023-02-27T00:00:46.855Z,7.28
2023-02-27T00:01:43.559Z,7.65
2023-02-27T00:02:44.546Z,7.68
2023-02-27T00:03:41.190Z,7.70
2023-02-27T00:04:37.858Z,8.15
2023-02-27T00:05:34.442Z,8.35
2023-02-27T00:06:31.405Z,7.35
2023-02-27T00:07:28.877Z,7.65
2023-02-27T00:08:25.517Z,7.30
2023-02-27T00:09:22.206Z,7.72
2023-02-27T00:10:19.131Z,7.78
2023-02-27T00:11:15.861Z,7.63
2023-02-27T00:12:12.600Z,7.53
2023-02-27T00:13:10.240Z,8.35
2023-02-27T00:14:06.949Z,7.65
2023-02-27T00:15:14.927Z,8.35
2023-02-27T00:16:12.956Z,8.40
2023-02-27T00:17:09.711Z,7.18
2023-02-27T00:18:07.702Z,7.45
2023-02-27T00:19:04.979Z,7.57
2023-02-27T00:20:01.812Z,8.05
2023-02-27T00:20:58.459Z,7.43
2023-02-27T00:21:55.207Z,6.13
2023-02-27T00:22:52.085Z,7.32
2023-02-27T00:23:48.913Z,8.25
2023-02-27T00:24:45.536Z,6.85
2023-02-27T00:25:42.386Z,6.40
2023-02-27T00:26:39.393Z,7.25
2023-02-27T00:27:37.078Z,7.63
2023-02-27T00:28:33.856Z,7.85
2023-02-27T00:29:30.394Z,6.97
2023-02-27T00:30:27.581Z,7.50
2023-02-27T00:31:24.503Z,7.47
2023-02-27T00:32:21.371Z,7.20
2023-02-27T00:33:18.095Z,8.18
2023-02-27T00:34:15.803Z,7.18
2023-02-27T00:35:12.766Z,8.00
2023-02-27T00:36:09.469Z,7.72
2023-02-27T00:37:06.136Z,8.70
2023-02-27T00:38:02.862Z,7.47
2023-02-27T00:38:59.491Z,8.15
2023-02-27T00:39:56.173Z,7.47
2023-02-27T00:40:52.992Z,7.38
2023-02-27T00:41:49.583Z,8.05
2023-02-27T00:42:48.636Z,7.53
2023-02-27T00:43:45.510Z,7.95
2023-02-27T00:44:42.197Z,7.40
2023-02-27T00:45:38.805Z,7.38
2023-02-27T00:46:35.371Z,8.15
2023-02-27T00:47:33.793Z,7.68
2023-02-27T00:48:30.514Z,7.88
2023-02-27T00:49:27.331Z,8.27
2023-02-27T00:50:24.207Z,8.68
2023-02-27T00:51:21.985Z,8.20
2023-02-27T00:52:18.620Z,8.60
2023-02-27T00:53:15.198Z,8.18
2023-02-27T00:54:11.863Z,7.65
2023-02-27T00:55:09.706Z,8.02
2023-02-27T00:56:06.629Z,8.52
2023-02-27T00:57:03.521Z,7.55
2023-02-27T00:58:00.153Z,7.45
2023-02-27T00:58:56.731Z,7.43
2023-02-27T00:59:53.332Z,8.13
2023-02-27T01:00:49.929Z,7.53
2023-02-27T01:01:46.580Z,7.85
2023-02-27T01:02:43.350Z,8.32
2023-02-27T01:03:39.951Z,8.20
2023-02-27T01:04:36.732Z,7.63
2023-02-27T01:05:33.387Z,7.47
2023-02-27T01:06:31.141Z,7.60
2023-02-27T01:07:27.877Z,7.80
2023-02-27T01:08:24.504Z,8.40
2023-02-27T01:09:21.305Z,7.22
2023-02-27T01:10:18.142Z,7.85
2023-02-27T01:11:15.015Z,7.57
2023-02-27T01:12:11.651Z,7.97
2023-02-27T01:13:10.322Z,7.93
2023-02-27T01:14:07.933Z,7.82
2023-02-27T01:15:06.309Z,8.05
2023-02-27T01:16:03.022Z,7.22
2023-02-27T01:16:59.653Z,7.80
2023-02-27T01:17:56.295Z,7.45
2023-02-27T01:18:53.164Z,7.25
2023-02-27T01:19:49.908Z,8.55
2023-02-27T01:20:46.502Z,7.63
2023-02-27T01:21:43.242Z,7.93
2023-02-27T01:22:40.398Z,7.25
2023-02-27T01:23:37.101Z,7.82
2023-02-27T01:24:33.840Z,8.20
2023-02-27T01:25:30.515Z,7.43
2023-02-27T01:26:27.230Z,7.07
2023-02-27T01:27:23.799Z,8.50
2023-02-27T01:28:21.251Z,7.88
2023-02-27T01:29:17.888Z,8.82
2023-02-27T01:30:16.247Z,7.60
2023-02-27T01:31:12.887Z,8.38
2023-02-27T01:32:09.635Z,8.90
2023-02-27T01:33:06.989Z,8.68
2023-02-27T01:34:03.609Z,7.85
2023-02-27T01:35:00.189Z,7.07
2023-02-27T01:35:56.895Z,8.68
2023-02-27T01:36:53.546Z,9.77
2023-02-27T01:37:50.151Z,7.70
2023-02-27T01:38:46.886Z,8.02
2023-02-27T01:39:43.573Z,8.93
2023-02-27T01:40:41.519Z,6.93
2023-02-27T01:41:38.096Z,7.40
2023-02-27T01:42:34.911Z,8.90
2023-02-27T01:43:31.572Z,8.32
2023-02-27T01:44:30.749Z,8.15
2023-02-27T01:45:27.359Z,7.47
2023-02-27T01:46:25.642Z,7.88
2023-02-27T01:47:22.267Z,8.15
2023-02-27T01:48:27.081Z,7.47
2023-02-27T01:49:34.459Z,8.25
2023-02-27T01:50:32.124Z,7.30
2023-02-27T01:51:33.770Z,7.82
2023-02-27T01:52:31.841Z,8.40
2023-02-27T01:53:32.641Z,7.22
2023-02-27T01:54:32.154Z,7.93
2023-02-27T01:55:33.561Z,8.75
2023-02-27T01:56:32.131Z,7.68
2023-02-27T01:57:29.103Z,7.85
2023-02-27T01:58:27.025Z,7.90
2023-02-27T01:59:23.723Z,7.60
2023-02-27T02:00:20.859Z,8.02
2023-02-27T02:01:17.748Z,7.45
2023-02-27T02:02:30.918Z,7.20
2023-02-27T02:04:36.457Z,8.05
2023-02-27T02:05:33.911Z,8.32
2023-02-27T02:06:34.394Z,7.65
2023-02-27T02:07:31.020Z,7.53
2023-02-27T02:08:30.906Z,7.78
2023-02-27T02:09:29.013Z,7.80
2023-02-27T02:10:26.462Z,7.88
2023-02-27T02:11:24.999Z,7.80
2023-02-27T02:12:26.676Z,8.15
2023-02-27T02:13:23.541Z,7.82
2023-02-27T02:14:20.120Z,7.75
2023-02-27T02:15:17.374Z,7.68
2023-02-27T02:16:29.250Z,8.90
2023-02-27T02:17:45.494Z,7.93
2023-02-27T02:18:54.265Z,7.93
2023-02-27T02:20:18.315Z,7.38
2023-02-27T02:21:20.798Z,8.20
2023-02-27T02:23:52.847Z,8.57
2023-02-27T02:25:12.810Z,7.38
2023-02-27T02:26:24.842Z,8.25
2023-02-27T02:27:30.533Z,8.20
2023-02-27T02:28:45.645Z,7.80
2023-02-27T02:30:17.354Z,8.23
2023-02-27T02:31:43.365Z,7.88
2023-02-27T02:32:49.094Z,5.82
2023-02-27T02:34:07.894Z,5.35
2023-02-27T02:35:36.030Z,4.88
2023-02-27T02:37:31.408Z,4.25
2023-02-27T02:38:44.632Z,4.10
2023-02-27T02:40:10.519Z,4.53
2023-02-27T02:41:27.467Z,5.75
2023-02-27T02:42:32.072Z,5.95
2023-02-27T02:43:47.425Z,5.45
2023-02-27T02:45:12.132Z,5.35
2023-02-27T02:46:41.987Z,7.00
2023-02-27T02:47:38.510Z,6.10
2023-02-27T02:49:00.377Z,5.78
2023-02-27T02:50:09.044Z,5.15
2023-02-27T02:51:11.652Z,6.15
2023-02-27T02:52:46.537Z,6.40
2023-02-27T02:53:51.806Z,5.40
2023-02-27T02:54:51.074Z,5.70
2023-02-27T02:55:58.427Z,6.20
2023-02-27T02:57:05.432Z,5.47
2023-02-27T02:58:32.129Z,6.57
2023-02-27T02:59:55.523Z,5.50
2023-02-27T03:01:25.407Z,5.90
2023-02-27T03:02:28.324Z,4.72
2023-02-27T03:03:37.102Z,5.60
2023-02-27T03:04:43.139Z,4.97
2023-02-27T03:05:48.074Z,5.43
2023-02-27T03:06:52.534Z,5.10
2023-02-27T03:08:11.005Z,5.68
2023-02-27T03:09:16.514Z,5.13
2023-02-27T03:10:21.714Z,4.78
2023-02-27T03:11:18.542Z,5.40
2023-02-27T03:12:20.335Z,5.40
2023-02-27T03:13:30.826Z,4.82
2023-02-27T03:14:47.033Z,4.65
2023-02-27T03:16:30.891Z,5.00
2023-02-27T03:18:04.953Z,4.40
2023-02-27T03:19:10.590Z,4.05
2023-02-27T03:20:12.504Z,4.50
2023-02-27T03:21:16.652Z,4.90
2023-02-27T03:22:22.149Z,4.07
2023-02-27T03:23:42.735Z,4.53
2023-02-27T03:24:43.473Z,4.15
2023-02-27T03:25:46.170Z,3.75
2023-02-27T03:26:45.590Z,4.40
2023-02-27T03:27:52.150Z,3.83
2023-02-27T03:29:04.124Z,4.20
2023-02-27T03:30:03.700Z,4.15
2023-02-27T03:31:20.463Z,4.30
2023-02-27T03:32:22.994Z,4.05
2023-02-27T03:34:22.213Z,4.50
2023-02-27T03:35:18.967Z,3.83
2023-02-27T03:36:48.516Z,4.47
2023-02-27T03:38:08.685Z,4.05
2023-02-27T03:39:32.782Z,4.20
2023-02-27T03:41:03.943Z,3.22
2023-02-27T03:42:20.409Z,4.07
2023-02-27T03:43:42.457Z,4.32
2023-02-27T03:44:51.588Z,3.67
2023-02-27T03:46:05.498Z,3.42
2023-02-27T03:47:02.694Z,3.10
2023-02-27T03:48:00.677Z,3.70
2023-02-27T03:48:57.275Z,4.43
2023-02-27T03:49:54.127Z,3.53
2023-02-27T03:50:50.853Z,3.70
2023-02-27T03:51:47.693Z,3.97
2023-02-27T03:52:45.541Z,3.60
2023-02-27T03:53:59.506Z,3.22
2023-02-27T03:55:09.850Z,3.70
2023-02-27T03:56:09.155Z,3.40
2023-02-27T03:57:07.964Z,3.38
2023-02-27T03:58:05.157Z,3.28
2023-02-27T03:59:01.730Z,3.10
2023-02-27T03:59:59.091Z,3.85
2023-02-27T04:00:55.724Z,3.35
2023-02-27T04:01:53.302Z,3.60
2023-02-27T04:02:53.152Z,3.03
2023-02-27T04:03:55.910Z,2.70
2023-02-27T04:05:49.338Z,3.00
2023-02-27T04:07:09.410Z,2.85
2023-02-27T04:08:39.882Z,2.60
2023-02-27T04:09:58.453Z,2.88
2023-02-27T04:11:22.245Z,3.13
2023-02-27T04:13:21.098Z,2.78
2023-02-27T04:14:30.914Z,3.03
2023-02-27T04:15:33.525Z,3.15
2023-02-27T04:16:50.938Z,3.13
2023-02-27T04:17:47.583Z,3.05
2023-02-27T04:19:05.828Z,2.80
2023-02-27T04:20:30.066Z,2.72
2023-02-27T04:21:51.161Z,3.10
2023-02-27T04:22:50.452Z,2.80
2023-02-27T04:23:47.004Z,2.70
2023-02-27T04:24:58.414Z,3.22
2023-02-27T04:26:22.729Z,2.97
2023-02-27T04:27:48.219Z,2.83
2023-02-27T04:28:54.311Z,2.70
2023-02-27T04:30:00.889Z,2.67
2023-02-27T04:31:17.506Z,2.95
2023-02-27T04:32:34.980Z,3.15
2023-02-27T04:33:41.048Z,3.13
2023-02-27T04:34:52.100Z,3.30
2023-02-27T04:35:54.662Z,3.25
2023-02-27T04:37:52.936Z,2.47
2023-02-27T04:38:57.401Z,2.45
2023-02-27T04:40:05.471Z,3.00
2023-02-27T04:41:08.833Z,2.65
2023-02-27T04:42:29.106Z,2.50
2023-02-27T04:43:27.971Z,2.53
2023-02-27T04:44:26.214Z,2.50
2023-02-27T04:45:27.870Z,2.20
2023-02-27T04:46:28.792Z,2.35
2023-02-27T04:47:30.375Z,2.15
2023-02-27T04:48:33.214Z,2.20
2023-02-27T04:49:38.413Z,2.30
2023-02-27T04:50:44.558Z,2.10
2023-02-27T04:51:56.830Z,2.25
2023-02-27T04:53:02.018Z,2.35
2023-02-27T04:54:04.505Z,2.20
2023-02-27T04:56:30.757Z,2.45
2023-02-27T04:57:38.195Z,3.50
2023-02-27T04:58:40.774Z,4.60
2023-02-27T04:59:46.806Z,5.50
2023-02-27T05:00:47.774Z,5.72
2023-02-27T05:01:54.172Z,5.20
2023-02-27T05:02:56.576Z,5.45
2023-02-27T05:03:55.205Z,5.22
2023-02-27T05:04:58.101Z,5.80
2023-02-27T05:06:01.183Z,5.80
2023-02-27T05:07:01.131Z,5.50
2023-02-27T05:08:09.393Z,5.82
2023-02-27T05:09:20.329Z,5.38
2023-02-27T05:10:34.301Z,5.53
2023-02-27T05:11:55.202Z,5.38
2023-02-27T05:12:57.110Z,4.90
2023-02-27T05:14:08.357Z,3.10
2023-02-27T05:15:13.910Z,2.17
2023-02-27T05:16:13.508Z,2.35
2023-02-27T05:17:17.889Z,2.20
2023-02-27T05:18:19.211Z,2.40
2023-02-27T05:19:18.380Z,1.80
2023-02-27T05:20:17.382Z,1.90
2023-02-27T05:21:29.320Z,2.00
2023-02-27T05:22:41.199Z,1.90
2023-02-27T05:23:56.210Z,3.85
2023-02-27T05:24:52.879Z,4.47
2023-02-27T05:26:14.393Z,1.98
2023-02-27T05:27:14.053Z,2.03
2023-02-27T05:28:21.550Z,1.40
2023-02-27T05:29:52.316Z,1.90
2023-02-27T05:30:57.475Z,1.80
2023-02-27T05:32:03.341Z,1.75
2023-02-27T05:33:25.798Z,1.83
2023-02-27T05:34:44.674Z,3.53
2023-02-27T05:35:59.472Z,3.08
2023-02-27T05:37:02.300Z,2.70
2023-02-27T05:38:06.328Z,2.50
2023-02-27T05:39:06.243Z,4.43
2023-02-27T05:40:08.486Z,5.88
2023-02-27T05:41:19.279Z,6.90
2023-02-27T05:42:23.522Z,7.15
2023-02-27T05:43:28.842Z,6.70
2023-02-27T05:44:34.748Z,7.68
2023-02-27T05:45:35.237Z,8.07
2023-02-27T05:46:36.056Z,7.80
2023-02-27T05:47:36.205Z,7.63
2023-02-27T05:48:38.904Z,7.28
2023-02-27T05:49:43.999Z,7.40
2023-02-27T05:50:42.401Z,8.13
2023-02-27T05:51:43.040Z,8.15
2023-02-27T05:52:41.569Z,7.95
2023-02-27T05:53:43.977Z,7.93
2023-02-27T05:55:53.368Z,7.47
2023-02-27T05:56:53.490Z,8.57
2023-02-27T05:58:04.481Z,8.05
2023-02-27T05:59:03.503Z,8.65
2023-02-27T06:00:11.038Z,8.40
2023-02-27T06:01:10.097Z,8.60
2023-02-27T06:02:07.113Z,8.38
2023-02-27T06:03:04.119Z,8.75
2023-02-27T06:04:00.823Z,9.55
2023-02-27T06:04:57.561Z,8.52
2023-02-27T06:05:57.274Z,9.05
2023-02-27T06:06:54.331Z,10.05
2023-02-27T06:07:51.872Z,10.57
2023-02-27T06:08:48.595Z,10.73
2023-02-27T06:09:45.670Z,11.73
2023-02-27T06:10:42.240Z,10.43
2023-02-27T06:11:38.930Z,10.85
2023-02-27T06:12:35.577Z,10.23
2023-02-27T06:13:32.673Z,7.57
2023-02-27T06:14:29.349Z,9.65
2023-02-27T06:15:26.076Z,4.63
2023-02-27T06:16:22.823Z,5.50
2023-02-27T06:17:19.487Z,4.25
2023-02-27T06:18:17.058Z,6.68
2023-02-27T06:19:13.724Z,4.85
2023-02-27T06:20:11.228Z,6.22
2023-02-27T06:21:07.963Z,5.18
2023-02-27T06:22:04.771Z,2.53
2023-02-27T06:23:01.486Z,4.13
2023-02-27T06:23:58.110Z,2.28
2023-02-27T06:24:54.731Z,2.47
2023-02-27T06:25:51.301Z,2.42
2023-02-27T06:26:48.027Z,2.90
2023-02-27T06:27:44.650Z,2.50
2023-02-27T06:28:42.495Z,6.28
2023-02-27T06:29:39.102Z,8.43
2023-02-27T06:30:36.308Z,9.98
2023-02-27T06:31:32.953Z,10.63
2023-02-27T06:32:29.638Z,10.23
2023-02-27T06:33:26.449Z,9.15
2023-02-27T06:34:23.125Z,10.00
2023-02-27T06:35:19.815Z,11.10
2023-02-27T06:36:16.431Z,10.05
2023-02-27T06:37:13.046Z,11.15
2023-02-27T06:38:09.692Z,10.82
2023-02-27T06:39:06.804Z,11.13
2023-02-27T06:40:05.929Z,7.82
2023-02-27T06:41:04.385Z,6.07
2023-02-27T06:42:01.153Z,7.18
2023-02-27T06:42:57.707Z,6.03
2023-02-27T06:43:55.759Z,5.97
2023-02-27T06:44:52.515Z,6.32
2023-02-27T06:45:49.850Z,8.27
2023-02-27T06:46:46.464Z,9.90
2023-02-27T06:47:43.269Z,10.65
2023-02-27T06:48:39.928Z,11.15
2023-02-27T06:49:36.591Z,11.45
2023-02-27T06:50:33.200Z,9.50
2023-02-27T06:51:29.799Z,10.18
2023-02-27T06:52:26.717Z,10.50
2023-02-27T06:53:25.057Z,10.80
2023-02-27T06:54:21.679Z,10.70
2023-02-27T06:55:20.909Z,10.18
2023-02-27T06:56:17.631Z,11.25
2023-02-27T06:57:14.252Z,9.60
2023-02-27T06:58:10.899Z,10.25
2023-02-27T06:59:07.648Z,10.02
2023-02-27T07:00:07.170Z,9.95
2023-02-27T07:01:03.880Z,9.88
2023-02-27T07:02:01.285Z,11.05
2023-02-27T07:02:57.882Z,11.00
2023-02-27T07:03:54.502Z,11.75
2023-02-27T07:04:51.800Z,12.95
2023-02-27T07:05:48.479Z,14.02
2023-02-27T07:07:33.185Z,14.27
2023-02-27T07:08:03.741Z,14.38
2023-02-27T07:09:06.507Z,13.43
2023-02-27T07:10:05.203Z,15.00
2023-02-27T07:11:01.838Z,15.25
2023-02-27T07:11:58.542Z,14.43
2023-02-27T07:12:55.262Z,14.85
2023-02-27T07:13:51.914Z,14.32
2023-02-27T07:14:48.550Z,14.38
2023-02-27T07:15:45.264Z,14.40
2023-02-27T07:16:42.145Z,14.95
2023-02-27T07:17:38.757Z,16.02
2023-02-27T07:18:35.454Z,15.57
2023-02-27T07:19:33.731Z,16.95
2023-02-27T07:20:30.360Z,14.82
2023-02-27T07:21:27.041Z,16.50
2023-02-27T07:22:23.630Z,15.65
2023-02-27T07:23:20.277Z,16.25
2023-02-27T07:24:17.290Z,17.45
2023-02-27T07:25:13.886Z,17.00
2023-02-27T07:26:10.494Z,18.00
2023-02-27T07:27:07.123Z,19.33
2023-02-27T07:28:05.177Z,17.80
2023-02-27T07:29:01.998Z,19.13
2023-02-27T07:29:58.731Z,20.73
2023-02-27T07:30:56.241Z,17.95
2023-02-27T07:31:52.899Z,18.33
2023-02-27T07:32:50.727Z,19.77
2023-02-27T07:33:47.299Z,20.67
2023-02-27T07:34:43.946Z,19.50
2023-02-27T07:35:40.670Z,18.98
2023-02-27T07:36:38.193Z,20.25
2023-02-27T07:37:34.816Z,19.08
2023-02-27T07:38:32.433Z,19.40
2023-02-27T07:39:29.035Z,21.13
2023-02-27T07:40:25.599Z,20.17
2023-02-27T07:41:30.339Z,20.20
2023-02-27T07:42:27.970Z,20.85
2023-02-27T07:43:25.298Z,20.55
2023-02-27T07:44:21.880Z,20.70
2023-02-27T07:45:18.600Z,20.25
2023-02-27T07:46:15.185Z,21.73
2023-02-27T07:47:11.850Z,21.17
2023-02-27T07:48:08.753Z,22.00
2023-02-27T07:49:05.328Z,21.95
2023-02-27T07:50:02.018Z,21.42
2023-02-27T07:50:58.917Z,21.52
2023-02-27T07:51:56.366Z,22.38
2023-02-27T07:52:53.278Z,22.20
2023-02-27T07:53:49.853Z,23.20
2023-02-27T07:54:46.562Z,21.48
2023-02-27T07:55:43.128Z,22.10
2023-02-27T07:56:39.740Z,20.75
2023-02-27T07:57:36.720Z,22.45
2023-02-27T07:58:33.355Z,22.63
2023-02-27T07:59:30.142Z,23.30
2023-02-27T08:00:26.922Z,22.42
2023-02-27T08:01:23.691Z,21.75
2023-02-27T08:02:20.353Z,21.40
2023-02-27T08:03:17.010Z,21.92
2023-02-27T08:04:13.601Z,20.95
2023-02-27T08:05:10.748Z,21.00
2023-02-27T08:06:07.686Z,20.40
2023-02-27T08:07:05.203Z,20.52
2023-02-27T08:08:02.409Z,20.25
2023-02-27T08:08:59.008Z,18.63
2023-02-27T08:09:55.592Z,19.80
2023-02-27T08:10:52.300Z,19.23
2023-02-27T08:11:49.329Z,18.83
2023-02-27T08:12:46.092Z,18.42
2023-02-27T08:13:59.605Z,18.30
2023-02-27T08:14:57.360Z,18.63
2023-02-27T08:15:54.355Z,20.80
2023-02-27T08:16:50.938Z,21.58
2023-02-27T08:17:48.222Z,21.17
2023-02-27T08:18:44.913Z,22.13
2023-02-27T08:19:41.692Z,21.55
2023-02-27T08:20:38.287Z,20.98
2023-02-27T08:21:35.005Z,22.23
2023-02-27T08:22:32.550Z,22.85
2023-02-27T08:23:30.342Z,19.23
2023-02-27T08:24:27.137Z,20.50
2023-02-27T08:25:24.548Z,20.70
2023-02-27T08:26:21.526Z,19.08
2023-02-27T08:27:18.153Z,20.48
2023-02-27T08:28:14.869Z,18.60
2023-02-27T08:29:11.456Z,18.42
2023-02-27T08:30:10.330Z,20.63
2023-02-27T08:31:07.274Z,21.55
2023-02-27T08:32:04.934Z,21.65
2023-02-27T08:33:01.835Z,19.23
2023-02-27T08:34:09.532Z,21.45
2023-02-27T08:35:07.513Z,19.83
2023-02-27T08:36:04.533Z,21.45
2023-02-27T08:37:01.510Z,21.25
2023-02-27T08:37:58.290Z,21.33
2023-02-27T08:38:55.025Z,20.48
2023-02-27T08:39:51.843Z,21.40
2023-02-27T08:40:55.878Z,21.23
2023-02-27T08:41:52.709Z,19.70
2023-02-27T08:42:51.698Z,20.05
2023-02-27T08:43:49.046Z,20.50
2023-02-27T08:44:45.673Z,19.40
2023-02-27T08:45:42.312Z,19.27
2023-02-27T08:46:39.040Z,18.30
2023-02-27T08:47:35.761Z,18.25
2023-02-27T08:48:32.371Z,16.85
2023-02-27T08:49:30.376Z,14.52
2023-02-27T08:50:27.097Z,13.93
2023-02-27T08:51:23.800Z,13.75
2023-02-27T08:52:20.387Z,14.93
2023-02-27T08:53:17.112Z,15.18
2023-02-27T08:54:13.745Z,14.70
2023-02-27T08:55:10.757Z,15.05
2023-02-27T08:56:07.524Z,14.48
2023-02-27T08:57:04.655Z,13.65
2023-02-27T08:58:01.449Z,14.68
2023-02-27T08:58:58.048Z,15.77
2023-02-27T08:59:54.650Z,14.57
2023-02-27T09:00:51.391Z,14.52
2023-02-27T09:01:48.030Z,14.55
2023-02-27T09:02:44.717Z,13.98
2023-02-27T09:03:41.506Z,14.73
2023-02-27T09:04:38.072Z,15.10
2023-02-27T09:05:35.481Z,14.35
2023-02-27T09:06:33.691Z,13.05
2023-02-27T09:07:30.308Z,13.23
2023-02-27T09:08:26.904Z,13.52
2023-02-27T09:09:27.474Z,11.80
2023-02-27T09:10:24.198Z,12.05
2023-02-27T09:11:20.781Z,11.00
2023-02-27T09:12:17.402Z,11.48
2023-02-27T09:13:14.454Z,11.13
2023-02-27T09:14:11.115Z,10.10
2023-02-27T09:15:08.403Z,11.18
2023-02-27T09:16:05.263Z,10.13
2023-02-27T09:17:01.950Z,10.80
2023-02-27T09:18:03.112Z,9.30
2023-02-27T09:18:59.840Z,9.65
2023-02-27T09:19:57.481Z,10.65
2023-02-27T09:20:56.363Z,10.18
2023-02-27T09:21:52.953Z,9.88
2023-02-27T09:22:49.601Z,9.95
2023-02-27T09:23:46.437Z,10.63
2023-02-27T09:24:43.071Z,11.07
2023-02-27T09:25:39.640Z,10.52
2023-02-27T09:26:45.164Z,10.65
2023-02-27T09:27:42.664Z,10.63
2023-02-27T09:28:41.954Z,9.38
2023-02-27T09:29:38.508Z,9.52
2023-02-27T09:30:35.137Z,9.73
2023-02-27T09:31:33.400Z,9.48
2023-02-27T09:32:30.549Z,9.13
2023-02-27T09:33:29.336Z,8.25
2023-02-27T09:34:25.991Z,8.35
2023-02-27T09:35:22.782Z,8.52
2023-02-27T09:36:19.388Z,9.05
2023-02-27T09:37:16.317Z,7.60
2023-02-27T09:38:13.810Z,7.35
2023-02-27T09:39:10.492Z,8.30
2023-02-27T09:40:07.961Z,8.32
2023-02-27T09:41:06.337Z,7.03
2023-02-27T09:42:15.521Z,7.93
2023-02-27T09:43:20.876Z,7.25
2023-02-27T09:44:39.785Z,7.43
2023-02-27T09:45:42.832Z,7.25
2023-02-27T09:46:39.647Z,7.63
2023-02-27T09:47:50.682Z,7.55
2023-02-27T09:48:52.096Z,7.80
2023-02-27T09:50:27.740Z,7.47
2023-02-27T09:51:25.562Z,6.35
2023-02-27T09:52:22.419Z,6.38
2023-02-27T09:53:27.126Z,6.43
2023-02-27T09:54:25.967Z,6.20
2023-02-27T09:55:23.402Z,6.70
2023-02-27T09:56:32.599Z,6.45
2023-02-27T09:57:43.887Z,6.60
2023-02-27T09:58:51.599Z,6.15
2023-02-27T10:00:00.183Z,6.78
2023-02-27T10:01:10.094Z,6.93
2023-02-27T10:02:34.475Z,6.43
2023-02-27T10:04:11.839Z,7.55
2023-02-27T10:05:36.075Z,5.65
2023-02-27T10:07:07.999Z,6.70
2023-02-27T10:08:10.409Z,6.47
2023-02-27T10:09:29.708Z,6.15
2023-02-27T10:11:01.011Z,5.95
2023-02-27T10:11:57.665Z,5.88
2023-02-27T10:13:29.959Z,6.10
2023-02-27T10:14:43.552Z,6.60
2023-02-27T10:15:47.845Z,5.95
2023-02-27T10:16:46.383Z,6.35
2023-02-27T10:17:48.445Z,6.70
2023-02-27T10:18:55.239Z,6.35
2023-02-27T10:19:53.494Z,6.20
2023-02-27T10:21:01.631Z,6.78
2023-02-27T10:22:01.116Z,6.05
2023-02-27T10:23:01.835Z,5.88
2023-02-27T10:24:02.860Z,6.40
2023-02-27T10:25:15.056Z,6.50
2023-02-27T10:26:36.195Z,7.22
2023-02-27T10:27:33.706Z,6.35
2023-02-27T10:28:32.086Z,7.68
2023-02-27T10:29:37.022Z,6.50
2023-02-27T10:30:34.936Z,7.07
2023-02-27T10:31:34.828Z,7.13
2023-02-27T10:32:35.659Z,6.22
2023-02-27T10:33:38.413Z,7.03
2023-02-27T10:34:37.287Z,6.47
2023-02-27T10:35:37.645Z,6.55
2023-02-27T10:36:34.945Z,6.40
2023-02-27T10:37:31.753Z,7.18
2023-02-27T10:38:35.460Z,6.53
2023-02-27T10:39:43.139Z,6.25
2023-02-27T10:40:42.482Z,6.47
2023-02-27T10:41:40.651Z,5.82
2023-02-27T10:42:41.366Z,6.45
2023-02-27T10:43:38.476Z,6.63
2023-02-27T10:44:35.131Z,6.88
2023-02-27T10:45:32.174Z,6.50
2023-02-27T10:46:32.247Z,6.70
2023-02-27T10:47:31.062Z,6.72
2023-02-27T10:48:28.016Z,6.63
2023-02-27T10:49:25.195Z,6.30
2023-02-27T10:50:35.131Z,6.45
2023-02-27T10:51:36.374Z,6.13
2023-02-27T10:52:33.018Z,6.35
2023-02-27T10:53:29.908Z,6.78
2023-02-27T10:54:26.702Z,6.38
2023-02-27T10:55:29.482Z,5.72
2023-02-27T10:56:27.996Z,6.05
2023-02-27T10:57:36.978Z,6.72
2023-02-27T10:58:37.749Z,6.47
2023-02-27T10:59:40.425Z,5.63
2023-02-27T11:00:53.686Z,6.47
2023-02-27T11:01:52.716Z,6.07
2023-02-27T11:02:52.157Z,6.47
2023-02-27T11:03:56.063Z,6.47
2023-02-27T11:04:54.698Z,6.03
2023-02-27T11:05:57.429Z,6.25
2023-02-27T11:06:55.177Z,5.60
2023-02-27T11:07:52.134Z,5.97
2023-02-27T11:09:28.918Z,5.88
2023-02-27T11:10:28.408Z,5.25
2023-02-27T11:11:28.878Z,6.25
2023-02-27T11:12:32.217Z,6.25
2023-02-27T11:13:35.314Z,5.80
2023-02-27T11:14:33.753Z,6.05
2023-02-27T11:15:37.088Z,6.47
2023-02-27T11:16:48.033Z,5.95
2023-02-27T11:17:44.657Z,6.15
2023-02-27T11:18:45.977Z,6.70
2023-02-27T11:19:42.522Z,6.50
2023-02-27T11:20:43.447Z,6.35
2023-02-27T11:21:40.042Z,6.35
2023-02-27T11:22:36.577Z,6.35
2023-02-27T11:23:33.944Z,6.47
2023-02-27T11:24:31.041Z,5.90
2023-02-27T11:25:27.621Z,6.20
2023-02-27T11:26:55.162Z,6.30
2023-02-27T11:27:52.367Z,6.82
2023-02-27T11:29:14.848Z,6.13
2023-02-27T11:30:28.868Z,5.38
2023-02-27T11:31:25.597Z,6.53
2023-02-27T11:32:24.415Z,6.47
2023-02-27T11:33:21.259Z,6.25
2023-02-27T11:34:25.859Z,6.60
2023-02-27T11:35:27.884Z,6.78
2023-02-27T11:36:39.819Z,5.63
2023-02-27T11:37:37.948Z,6.18
2023-02-27T11:38:34.877Z,6.30
2023-02-27T11:39:38.073Z,6.45
2023-02-27T11:40:40.173Z,5.53
2023-02-27T11:41:37.375Z,5.32
2023-02-27T11:42:36.503Z,5.85
2023-02-27T11:43:36.957Z,6.45
2023-02-27T11:44:49.911Z,5.75
2023-02-27T11:46:21.587Z,6.32
2023-02-27T11:47:20.216Z,6.05
2023-02-27T11:48:25.065Z,6.13
2023-02-27T11:49:29.514Z,6.40
2023-02-27T11:50:29.618Z,6.25
2023-02-27T11:51:57.087Z,6.80
2023-02-27T11:53:07.501Z,6.70
2023-02-27T11:54:22.167Z,5.85
2023-02-27T11:55:24.030Z,6.60
2023-02-27T11:56:28.688Z,6.55
2023-02-27T11:57:30.281Z,6.55
2023-02-27T11:58:34.965Z,6.53
2023-02-27T11:59:43.527Z,6.07
2023-02-27T12:00:45.605Z,6.82
2023-02-27T12:01:53.704Z,6.60
2023-02-27T12:03:16.390Z,7.22
2023-02-27T12:04:51.842Z,6.80
2023-02-27T12:05:54.705Z,6.53
2023-02-27T12:07:07.595Z,6.70
2023-02-27T12:08:30.277Z,6.45
2023-02-27T12:09:45.811Z,7.20
2023-02-27T12:11:14.636Z,6.20
2023-02-27T12:12:22.288Z,6.50
2023-02-27T12:13:23.748Z,6.63
2023-02-27T12:14:27.381Z,7.45
2023-02-27T12:15:48.855Z,6.78
2023-02-27T12:16:54.265Z,6.82
2023-02-27T12:17:59.645Z,6.90
2023-02-27T12:19:04.592Z,6.55
2023-02-27T12:20:08.065Z,6.75
2023-02-27T12:21:10.622Z,6.80
2023-02-27T12:22:24.990Z,6.97
2023-02-27T12:23:31.934Z,6.53
2023-02-27T12:24:36.885Z,6.75
2023-02-27T12:25:54.064Z,5.88
2023-02-27T12:27:01.826Z,6.20
2023-02-27T12:28:22.830Z,6.60
2023-02-27T12:29:28.643Z,6.47
2023-02-27T12:30:31.955Z,6.47
2023-02-27T12:31:46.892Z,6.63
2023-02-27T12:33:10.199Z,6.15
2023-02-27T12:34:37.285Z,6.40
2023-02-27T12:35:34.074Z,6.15
2023-02-27T12:36:31.311Z,6.18
2023-02-27T12:37:30.591Z,6.57
2023-02-27T12:38:27.576Z,6.43
2023-02-27T12:39:25.572Z,6.50
2023-02-27T12:40:30.201Z,6.03
2023-02-27T12:42:05.906Z,6.35
2023-02-27T12:43:19.440Z,5.85
2023-02-27T12:44:41.964Z,5.88
2023-02-27T12:45:57.385Z,5.57
2023-02-27T12:47:12.518Z,5.95
2023-02-27T12:48:23.677Z,5.25
2023-02-27T12:50:00.606Z,5.63
2023-02-27T12:51:31.155Z,5.32
2023-02-27T12:52:35.388Z,5.25
2023-02-27T12:53:57.325Z,5.70
2023-02-27T12:55:13.794Z,6.00
2023-02-27T12:56:17.270Z,5.65
2023-02-27T12:57:19.948Z,5.47
2023-02-27T12:58:57.016Z,5.85
2023-02-27T13:00:16.192Z,5.80
2023-02-27T13:01:23.977Z,5.80
2023-02-27T13:02:23.289Z,6.25
2023-02-27T13:03:41.049Z,5.82
2023-02-27T13:04:52.632Z,5.93
2023-02-27T13:05:59.250Z,6.70
2023-02-27T13:07:08.617Z,6.20
2023-02-27T13:08:23.803Z,6.00
2023-02-27T13:09:29.241Z,6.50
2023-02-27T13:10:33.522Z,6.35
2023-02-27T13:11:56.501Z,6.72
2023-02-27T13:13:15.925Z,5.93
2023-02-27T13:14:28.737Z,6.82
2023-02-27T13:15:31.432Z,7.20
2023-02-27T13:16:41.291Z,7.43
2023-02-27T13:17:39.807Z,7.20
2023-02-27T13:18:45.688Z,7.28
2023-02-27T13:19:46.866Z,7.50
2023-02-27T13:20:56.882Z,7.68
2023-02-27T13:22:09.016Z,7.32
2023-02-27T13:23:38.608Z,7.28
2023-02-27T13:24:44.732Z,8.15
2023-02-27T13:25:45.873Z,7.47
2023-02-27T13:26:46.861Z,7.43
2023-02-27T13:27:58.123Z,8.45
2023-02-27T13:28:56.065Z,7.93
2023-02-27T13:30:20.273Z,8.35
2023-02-27T13:31:29.764Z,8.55
2023-02-27T13:32:44.042Z,8.82
2023-02-27T13:34:07.907Z,8.80
2023-02-27T13:35:28.212Z,8.73
2023-02-27T13:36:31.421Z,8.75
2023-02-27T13:37:53.881Z,8.80
2023-02-27T13:38:55.490Z,10.82
2023-02-27T13:39:53.824Z,13.70
2023-02-27T13:40:50.454Z,18.80
2023-02-27T13:41:47.098Z,28.25
2023-02-27T13:42:46.320Z,20.20
2023-02-27T13:43:51.740Z,16.70
2023-02-27T13:44:49.114Z,16.67
2023-02-27T13:45:53.469Z,13.52
2023-02-27T13:46:50.103Z,11.20
2023-02-27T13:47:50.204Z,10.35
2023-02-27T13:48:49.319Z,9.32
2023-02-27T13:49:45.921Z,9.65
2023-02-27T13:50:50.372Z,9.73
2023-02-27T13:51:48.236Z,9.88
2023-02-27T13:52:46.884Z,9.55
2023-02-27T13:53:43.536Z,9.57
2023-02-27T13:54:41.485Z,9.43
2023-02-27T13:55:40.064Z,9.07
2023-02-27T13:56:36.736Z,8.98
2023-02-27T13:57:35.542Z,9.32
2023-02-27T13:58:32.315Z,9.88
2023-02-27T13:59:37.713Z,8.70
2023-02-27T14:00:37.839Z,9.68